< < Back
Terminal Aerodrome Forecast


Current Version              Previous Versions:   1  2  3  4  5  6  7  8  9  

Terminal Aerodrome Forecast

349
FTUS42 KFFC 281741
TAFPDK
TAF
KPDK 281741Z 2818/2918 11006KT P6SM VCSH FEW040 SCT100
      TEMPO 2818/2822 VRB15KT 3SM TSRA BKN025CB
     FM282200 14006KT P6SM SCT040 BKN080
     FM290600 VRB03KT P6SM SCT015 BKN045
     FM291400 15007KT P6SM BKN030=

Latest METAR

145
SAUS70 KWBC 282000 RRM
MTRPDK
METAR KPDK 281953Z VRB04KT 4SM VCTS +RA BR FEW034 BKN043 OVC070 22/21
A3018 RMK AO2 LTG DSNT ALQDS RAB31 TSB16E51 SLP209 P0029
T02170206


USA.gov is the U.S. government's official web portal to all federal, state and local government web resources and services.